Pointe Aux Pins, Michigan
Current Conditions -  °F | °C
As of 5:17 PM on Monday 20 Oct 2014 (Local Time) from KSLH Reporting Station
Overcast Overcast  
Wind Chill: 44°   Ceiling: 1800
Heat Index: 48°   Visibility: 10mi
Dew Point: 43°   Wind: 9mph
Humidity: 82%   Direction: 320°NW
Pressure: 29.82"   Gusts: NA
Location:  45.73°N, 84.48°W
Report Text: KSLH 202117Z AUTO 32008KT 10SM BKN018 OVC027 08/06 A2982 RMK AO2 T00900061
Loading
Personal Weather Stations






























Interactive Weather Map
Tropical Storm Tracking
New forecast layout! Learn more

10-Day Weather Forecast

Advertisements
Track Severe Weather on mobile